Time;durP1;ratioP1;P1;durP2;ratioP2;P2;SDS_P1;SDS_P2;PMS_P1;PMS_P2;Temp;Humidity;BMP_temperature;BMP_pressure;BME280_temperature;BME280_humidity;BME280_pressure;Samples;Min_cycle;Max_cycle;Signal;HPM_P1;HPM_P2
2021/06/02 00:00:44;;;;;;;12.32;8.27;;;14.60;78.70;;;;;;4945751;28;20724;-82
2021/06/02 00:03:14;;;;;;;11.63;8.40;;;14.60;78.70;;;;;;4953033;28;20035;-82
2021/06/02 00:05:41;;;;;;;14.07;8.45;;;14.60;78.80;;;;;;4941735;28;20043;-82
2021/06/02 00:08:09;;;;;;;12.38;8.30;;;14.50;78.80;;;;;;4912926;28;20078;-81
2021/06/02 00:10:38;;;;;;;13.63;8.68;;;14.50;78.70;;;;;;4952891;28;20137;-82
2021/06/02 00:13:06;;;;;;;12.57;8.43;;;14.50;78.70;;;;;;4960451;28;20494;-83
2021/06/02 00:15:32;;;;;;;11.82;8.63;;;14.40;78.80;;;;;;4982832;28;20039;-82
2021/06/02 00:18:00;;;;;;;12.25;8.48;;;14.40;78.60;;;;;;4953928;29;20043;-82
2021/06/02 00:20:26;;;;;;;10.27;8.27;;;14.40;79.40;;;;;;4970019;28;20272;-82
2021/06/02 00:22:52;;;;;;;12.77;9.70;;;14.30;78.60;;;;;;4955926;28;20039;-82
2021/06/02 00:25:18;;;;;;;10.85;8.65;;;14.30;78.70;;;;;;4983257;28;20043;-82
2021/06/02 00:27:45;;;;;;;9.80;7.78;;;14.30;78.70;;;;;;4938778;29;20032;-81
2021/06/02 00:30:11;;;;;;;13.75;8.57;;;14.30;78.70;;;;;;4943252;29;20039;-82
2021/06/02 00:32:38;;;;;;;11.15;8.43;;;14.20;78.80;;;;;;4949516;28;20066;-82
2021/06/02 00:35:06;;;;;;;10.50;8.82;;;14.20;78.90;;;;;;4953497;29;20110;-82
2021/06/02 00:37:33;;;;;;;13.52;9.38;;;14.20;78.80;;;;;;4944660;29;20036;-83
2021/06/02 00:40:00;;;;;;;11.77;8.50;;;14.10;78.90;;;;;;4926015;28;20473;-82
2021/06/02 00:42:30;;;;;;;10.77;8.23;;;14.10;78.90;;;;;;4951749;28;20102;-82
2021/06/02 00:44:57;;;;;;;14.85;9.27;;;14.10;79.00;;;;;;4964936;28;20047;-83
2021/06/02 00:47:24;;;;;;;13.40;8.48;;;14.10;79.00;;;;;;4934703;29;20035;-82
2021/06/02 00:49:50;;;;;;;14.60;8.27;;;14.00;78.90;;;;;;4969696;28;20101;-82
2021/06/02 00:52:17;;;;;;;13.98;8.82;;;14.00;78.90;;;;;;4936050;29;20051;-82
2021/06/02 00:54:43;;;;;;;13.52;8.45;;;13.90;78.80;;;;;;4981496;28;20114;-81
2021/06/02 00:57:20;;;;;;;12.77;8.95;;;13.90;78.80;;;;;;4938683;29;20054;-82
2021/06/02 01:00:09;;;;;;;14.25;8.73;;;13.80;78.90;;;;;;4954963;28;20043;-82
2021/06/02 01:02:36;;;;;;;13.63;8.68;;;13.80;79.00;;;;;;4952688;28;20031;-82
2021/06/02 01:05:04;;;;;;;15.40;8.48;;;13.70;79.00;;;;;;4961728;28;20535;-82
2021/06/02 01:07:33;;;;;;;14.02;8.43;;;13.70;79.10;;;;;;4940677;28;20047;-83
2021/06/02 01:10:00;;;;;;;13.05;8.05;;;13.60;79.20;;;;;;4957146;28;20058;-82
2021/06/02 01:12:29;;;;;;;14.02;8.45;;;13.60;79.40;;;;;;4953529;28;20032;-83
2021/06/02 01:14:56;;;;;;;8.70;7.20;;;13.50;79.50;;;;;;4934758;28;20028;-82
2021/06/02 01:17:29;;;;;;;13.77;8.32;;;13.50;79.50;;;;;;4926236;29;20059;-83
2021/06/02 01:19:57;;;;;;;14.30;8.13;;;13.40;79.60;;;;;;4939676;28;20031;-82
2021/06/02 01:22:24;;;;;;;14.13;8.00;;;13.40;79.80;;;;;;4917506;28;20030;-83
2021/06/02 01:24:50;;;;;;;15.32;8.70;;;13.40;79.80;;;;;;4939228;29;20098;-82
2021/06/02 01:27:16;;;;;;;10.15;7.65;;;13.30;79.80;;;;;;4952378;28;20110;-82
2021/06/02 01:29:46;;;;;;;12.05;8.18;;;13.30;79.70;;;;;;4940005;28;20038;-81
2021/06/02 01:32:23;;;;;;;9.57;7.32;;;13.30;79.60;;;;;;4948178;29;20556;-81
2021/06/02 01:35:27;;;;;;;10.88;7.70;;;13.30;79.70;;;;;;4956453;28;20051;-82
2021/06/02 01:38:05;;;;;;;11.48;7.22;;;13.20;79.50;;;;;;4960141;28;20051;-81
2021/06/02 01:41:05;;;;;;;12.13;7.53;;;13.20;79.30;;;;;;4972106;28;20046;-82
2021/06/02 01:43:49;;;;;;;12.15;6.97;;;13.20;79.30;;;;;;4955868;28;20098;-82
2021/06/02 01:46:53;;;;;;;9.65;7.15;;;13.10;79.30;;;;;;4941803;28;20509;-82
2021/06/02 01:50:06;;;;;;;11.10;7.38;;;13.10;79.20;;;;;;4937873;28;20130;-82
2021/06/02 01:52:54;;;;;;;13.25;7.22;;;13.00;79.30;;;;;;4888528;29;20045;-82
2021/06/02 01:55:48;;;;;;;10.85;7.00;;;13.00;79.30;;;;;;4871191;29;20041;-82
2021/06/02 01:58:38;;;;;;;9.40;6.85;;;13.00;79.40;;;;;;4946765;28;20048;-83
2021/06/02 02:01:30;;;;;;;10.27;6.53;;;13.00;79.40;;;;;;4942362;28;20051;-82
2021/06/02 02:04:34;;;;;;;12.32;7.40;;;13.00;79.60;;;;;;4931244;28;20054;-82
2021/06/02 02:07:03;;;;;;;;;;;12.90;79.50;;;;;;4949676;28;20032;-81
2021/06/02 02:09:52;;;;;;;8.82;6.63;;;12.90;79.50;;;;;;4956262;28;19925;-82
2021/06/02 02:12:36;;;;;;;14.82;6.95;;;12.90;79.40;;;;;;4947311;28;20422;-81
2021/06/02 02:15:27;;;;;;;12.73;6.55;;;12.90;79.40;;;;;;4960388;28;20047;-82
2021/06/02 02:18:11;;;;;;;13.35;6.70;;;12.80;79.40;;;;;;4953162;28;20043;-82
2021/06/02 02:20:53;;;;;;;12.35;7.00;;;12.80;79.50;;;;;;4952797;28;20451;-82
2021/06/02 02:23:19;;;;;;;10.32;6.65;;;12.80;79.50;;;;;;4987015;28;20039;-82
2021/06/02 02:26:11;;;;;;;8.48;6.72;;;12.70;79.40;;;;;;4956068;28;20035;-83
2021/06/02 02:29:18;;;;;;;10.50;6.78;;;12.70;79.40;;;;;;4953960;28;20109;-81
2021/06/02 02:32:07;;;;;;;10.95;6.47;;;12.70;79.30;;;;;;4948236;28;20043;-82
2021/06/02 02:34:53;;;;;;;12.13;7.10;;;12.70;79.40;;;;;;4957328;28;20067;-83
2021/06/02 02:37:54;;;;;;;8.77;6.17;;;12.70;79.40;;;;;;4956849;28;20039;-83
2021/06/02 02:40:31;;;;;;;9.95;7.25;;;12.60;79.40;;;;;;4952125;28;20534;-82
2021/06/02 02:43:10;;;;;;;13.75;6.70;;;12.60;79.30;;;;;;4938835;28;20047;-81
2021/06/02 02:45:45;;;;;;;13.95;6.68;;;12.60;79.50;;;;;;4945409;28;20047;-83
2021/06/02 02:48:26;;;;;;;11.70;6.93;;;12.60;79.40;;;;;;4948832;28;20070;-82
2021/06/02 02:51:14;;;;;;;9.27;6.50;;;12.50;79.30;;;;;;4964852;28;20046;-83
2021/06/02 02:53:52;;;;;;;10.45;6.63;;;12.50;79.70;;;;;;4948616;28;20035;-83
2021/06/02 02:56:26;;;;;;;10.13;6.88;;;12.50;80.20;;;;;;4949151;28;20039;-81
2021/06/02 02:59:12;;;;;;;9.90;7.05;;;12.50;79.80;;;;;;4950826;28;20031;-83
2021/06/02 03:01:43;;;;;;;11.25;7.47;;;12.50;80.10;;;;;;4957670;28;20059;-83
2021/06/02 03:04:13;;;;;;;10.43;6.72;;;12.50;80.00;;;;;;4947746;28;20039;-83
2021/06/02 03:06:44;;;;;;;10.85;7.63;;;12.50;80.20;;;;;;4941822;28;20031;-83
2021/06/02 03:09:40;;;;;;;10.48;6.88;;;12.50;80.30;;;;;;4945685;28;20118;-83
2021/06/02 03:12:08;;;;;;;10.73;7.00;;;12.40;80.30;;;;;;4974205;28;20170;-82
2021/06/02 03:14:54;;;;;;;21.25;8.15;;;12.40;80.40;;;;;;4968374;28;20048;-83
2021/06/02 03:17:39;;;;;;;11.07;7.88;;;12.40;80.70;;;;;;4950629;28;20406;-84
2021/06/02 03:20:29;;;;;;;12.80;7.78;;;12.40;80.90;;;;;;4943740;28;20105;-84
2021/06/02 03:23:05;;;;;;;12.57;7.70;;;12.40;81.20;;;;;;4943833;28;20063;-82
2021/06/02 03:26:03;;;;;;;13.55;8.20;;;12.40;81.20;;;;;;4979382;28;20070;-83
2021/06/02 03:28:59;;;;;;;13.20;8.40;;;12.50;81.70;;;;;;4951344;29;20041;-83
2021/06/02 03:31:25;;;;;;;13.70;8.27;;;12.50;82.10;;;;;;4975757;28;20035;-83
2021/06/02 03:34:09;;;;;;;14.52;8.43;;;12.50;82.10;;;;;;4959914;29;20035;-82
2021/06/02 03:37:11;;;;;;;15.85;9.02;;;12.50;83.20;;;;;;4952360;29;20043;-83
2021/06/02 03:39:55;;;;;;;14.80;8.43;;;12.50;82.80;;;;;;4959948;28;20066;-83
2021/06/02 03:42:37;;;;;;;13.25;8.38;;;12.50;83.40;;;;;;4974240;28;20151;-83
2021/06/02 03:45:09;;;;;;;14.15;9.15;;;12.50;83.90;;;;;;4948302;29;20040;-83
2021/06/02 03:48:12;;;;;;;12.27;9.07;;;12.50;83.30;;;;;;4941613;28;20043;-84
2021/06/02 03:50:47;;;;;;;;;;;12.60;84.10;;;;;;4956224;28;20027;-82
2021/06/02 03:53:19;;;;;;;16.90;9.02;;;12.60;84.40;;;;;;4973465;28;19962;-80
2021/06/02 03:56:34;;;;;;;13.85;8.82;;;12.60;83.50;;;;;;4953536;28;20036;-81
2021/06/02 03:59:37;;;;;;;13.38;9.20;;;12.70;84.50;;;;;;4918488;29;20139;-82
2021/06/02 04:02:29;;;;;;;15.38;9.48;;;12.80;84.60;;;;;;4953954;29;20042;-81
2021/06/02 04:05:04;;;;;;;12.93;9.37;;;12.80;84.00;;;;;;4941047;29;20491;-82
2021/06/02 04:08:05;;;;;;;16.27;10.30;;;12.80;84.10;;;;;;4977269;28;20038;-81
2021/06/02 04:11:03;;;;;;;13.73;9.68;;;12.90;85.20;;;;;;4989068;28;20786;-81
2021/06/02 04:13:50;;;;;;;13.18;9.57;;;13.00;84.50;;;;;;4969466;28;20172;-80
2021/06/02 04:16:19;;;;;;;17.85;10.38;;;13.10;84.10;;;;;;4953646;28;20435;-81
2021/06/02 04:18:51;;;;;;;16.33;10.13;;;13.20;84.10;;;;;;4955088;28;20069;-81
2021/06/02 04:21:19;;;;;;;14.82;9.60;;;13.20;83.90;;;;;;4937051;29;20147;-80
2021/06/02 04:23:46;;;;;;;16.42;11.00;;;13.30;84.00;;;;;;4940173;29;20055;-80
2021/06/02 04:26:13;;;;;;;17.20;10.20;;;13.40;83.70;;;;;;4951149;29;20032;-81
2021/06/02 04:28:40;;;;;;;17.38;10.70;;;13.40;83.80;;;;;;4938841;29;20027;-80
2021/06/02 04:31:09;;;;;;;13.35;10.27;;;13.50;83.70;;;;;;4937986;29;20082;-81
2021/06/02 04:33:37;;;;;;;16.48;10.05;;;13.50;83.70;;;;;;4983109;28;20573;-81
2021/06/02 04:36:04;;;;;;;15.90;10.02;;;13.60;83.70;;;;;;4943298;28;20055;-82
2021/06/02 04:38:31;;;;;;;17.02;10.23;;;13.70;83.60;;;;;;4951015;28;20039;-81
2021/06/02 04:41:05;;;;;;;14.07;9.68;;;13.80;83.70;;;;;;4934414;28;20110;-81
2021/06/02 04:43:38;;;;;;;14.13;10.65;;;13.80;83.60;;;;;;4943049;28;20043;-80
2021/06/02 04:46:06;;;;;;;13.63;10.02;;;13.90;83.50;;;;;;4964733;28;20686;-81
2021/06/02 04:48:33;;;;;;;15.63;10.18;;;13.90;83.30;;;;;;4938119;28;20119;-82
2021/06/02 04:51:14;;;;;;;16.98;10.48;;;14.00;83.40;;;;;;4953953;28;20031;-80
2021/06/02 04:53:46;;;;;;;15.32;9.88;;;14.00;83.70;;;;;;4956184;28;20059;-81
2021/06/02 04:56:36;;;;;;;13.05;10.55;;;14.00;83.40;;;;;;4942216;28;20036;-81
2021/06/02 04:59:24;;;;;;;14.50;9.40;;;14.00;83.10;;;;;;4936524;28;20035;-81
2021/06/02 05:02:28;;;;;;;14.27;10.52;;;14.00;83.40;;;;;;4951408;28;20059;-82
2021/06/02 05:05:25;;;;;;;20.70;10.77;;;14.00;83.20;;;;;;4958808;28;20051;-81
2021/06/02 05:08:45;;;;;;;15.85;9.27;;;14.00;83.10;;;;;;4952059;28;20137;-80
2021/06/02 05:11:11;;;;;;;15.05;9.82;;;13.90;83.30;;;;;;4939692;28;20043;-80
2021/06/02 05:14:04;;;;;;;13.23;9.77;;;13.90;83.00;;;;;;4939657;28;20094;-80
2021/06/02 05:16:48;;;;;;;17.13;10.07;;;13.90;83.30;;;;;;4938850;28;20035;-81
2021/06/02 05:22:12;;;;;;;;;;;13.80;83.30;;;;;;4946513;28;20281;-82
2021/06/02 05:25:16;;;;;;;18.75;10.10;;;13.80;83.40;;;;;;4941441;28;19929;-81
2021/06/02 05:28:19;;;;;;;13.27;10.27;;;13.80;83.70;;;;;;4982619;28;20462;-81
2021/06/02 05:31:23;;;;;;;16.05;9.90;;;13.90;83.60;;;;;;4952034;28;20135;-81
2021/06/02 05:34:14;;;;;;;14.80;9.93;;;13.80;83.40;;;;;;4953662;28;20038;-81
2021/06/02 05:37:13;;;;;;;17.10;9.93;;;13.90;83.50;;;;;;4952278;28;20538;-80
2021/06/02 05:40:00;;;;;;;16.45;11.45;;;13.90;83.60;;;;;;4939710;28;20149;-82
2021/06/02 05:42:45;;;;;;;21.17;12.80;;;14.00;83.40;;;;;;4975304;28;20047;-81
2021/06/02 05:45:32;;;;;;;14.45;9.63;;;14.00;83.30;;;;;;4936177;28;20043;-82
2021/06/02 05:48:35;;;;;;;17.95;9.80;;;14.10;83.30;;;;;;4933402;28;20128;-81
2021/06/02 05:51:33;;;;;;;14.05;9.68;;;14.10;83.00;;;;;;4952819;28;20039;-82
2021/06/02 05:54:06;;;;;;;15.27;9.55;;;14.10;83.00;;;;;;4936701;28;20041;-80
2021/06/02 05:57:04;;;;;;;13.75;9.68;;;14.20;82.90;;;;;;4939306;29;20065;-82
2021/06/02 05:59:54;;;;;;;14.93;9.18;;;14.20;83.10;;;;;;4941301;28;20661;-82
2021/06/02 06:02:58;;;;;;;18.50;10.10;;;14.20;82.90;;;;;;4958276;28;20482;-81
2021/06/02 06:05:35;;;;;;;15.57;10.10;;;14.30;83.30;;;;;;4969458;28;20039;-82
2021/06/02 06:08:35;;;;;;;15.68;9.75;;;14.30;82.90;;;;;;4965495;28;20037;-80
2021/06/02 06:11:38;;;;;;;15.13;9.55;;;14.50;82.60;;;;;;4954923;28;20043;-81
2021/06/02 06:14:41;;;;;;;15.13;9.15;;;14.60;82.20;;;;;;4936785;28;20058;-83
2021/06/02 06:17:12;;;;;;;14.90;9.33;;;14.60;81.70;;;;;;4926582;29;20546;-81
2021/06/02 06:20:03;;;;;;;14.00;8.15;;;14.70;81.30;;;;;;4954455;28;20555;-81
2021/06/02 06:22:47;;;;;;;11.45;8.32;;;14.80;80.60;;;;;;4952491;28;20047;-81
2021/06/02 06:25:17;;;;;;;17.50;9.40;;;14.90;80.50;;;;;;4969395;28;20550;-82
2021/06/02 06:27:52;;;;;;;16.17;9.75;;;14.90;80.30;;;;;;4945182;28;20124;-85
2021/06/02 06:30:26;;;;;;;16.67;8.15;;;15.00;80.20;;;;;;4937606;29;20035;-84
2021/06/02 06:32:57;;;;;;;12.52;8.07;;;15.10;79.70;;;;;;4956780;28;20055;-85
2021/06/02 06:35:25;;;;;;;14.57;7.63;;;15.10;78.90;;;;;;4944005;28;20039;-83
2021/06/02 06:37:53;;;;;;;10.02;7.13;;;15.20;78.80;;;;;;4965760;28;21255;-82
2021/06/02 06:40:28;;;;;;;15.55;8.00;;;15.30;78.90;;;;;;4939354;28;20506;-84
2021/06/02 06:42:58;;;;;;;20.25;9.07;;;15.30;78.70;;;;;;4940168;28;20090;-83
2021/06/02 06:45:35;;;;;;;11.23;7.97;;;15.40;78.20;;;;;;4944378;28;20051;-86
2021/06/02 06:48:12;;;;;;;13.68;9.10;;;15.40;77.90;;;;;;4948333;28;20125;-85
2021/06/02 06:50:39;;;;;;;12.00;8.68;;;15.50;78.50;;;;;;4939928;28;20046;-86
2021/06/02 06:53:07;;;;;;;15.45;8.18;;;15.70;78.40;;;;;;4951148;28;20344;-84
2021/06/02 06:55:34;;;;;;;13.60;8.43;;;15.80;78.10;;;;;;4933819;28;20040;-82
2021/06/02 06:58:01;;;;;;;16.13;8.35;;;15.90;78.00;;;;;;4937892;28;20036;-82
2021/06/02 07:00:30;;;;;;;15.88;9.05;;;16.00;77.80;;;;;;4924518;29;20039;-82
2021/06/02 07:02:56;;;;;;;14.23;9.48;;;16.10;77.20;;;;;;4948395;28;20078;-83
2021/06/02 07:05:23;;;;;;;17.52;9.00;;;16.30;76.60;;;;;;4937679;28;20106;-85
2021/06/02 07:07:51;;;;;;;15.27;8.20;;;16.30;75.60;;;;;;4940907;28;20589;-82
2021/06/02 07:10:16;;;;;;;17.63;8.88;;;16.40;74.80;;;;;;4956005;28;20039;-84
2021/06/02 07:12:45;;;;;;;13.32;8.55;;;16.50;75.50;;;;;;4941436;28;20035;-83
2021/06/02 07:15:14;;;;;;;12.95;8.32;;;16.60;75.60;;;;;;4944681;28;20043;-81
2021/06/02 07:17:46;;;;;;;13.65;8.35;;;16.70;75.50;;;;;;4951282;29;20031;-83
2021/06/02 07:20:24;;;;;;;15.93;9.35;;;16.90;74.80;;;;;;4945062;28;20062;-83
2021/06/02 07:22:51;;;;;;;18.77;8.93;;;17.00;72.70;;;;;;4958353;28;20031;-82
2021/06/02 07:25:19;;;;;;;15.02;10.13;;;17.10;73.10;;;;;;4947608;29;20245;-82
2021/06/02 07:27:46;;;;;;;13.20;8.32;;;17.10;72.60;;;;;;4940787;28;20043;-85
2021/06/02 07:30:14;;;;;;;12.73;8.60;;;17.20;72.80;;;;;;4930542;28;22269;-82
2021/06/02 07:32:41;;;;;;;15.13;8.75;;;17.30;72.80;;;;;;4953609;28;20464;-84
2021/06/02 07:35:07;;;;;;;13.18;8.60;;;17.50;72.70;;;;;;4934852;28;20047;-85
2021/06/02 07:37:34;;;;;;;14.75;8.70;;;17.60;72.20;;;;;;4947899;28;20034;-84
2021/06/02 07:40:01;;;;;;;14.35;9.18;;;17.80;71.90;;;;;;4943101;28;20043;-81
2021/06/02 07:42:27;;;;;;;13.15;7.90;;;17.90;71.20;;;;;;4943699;28;20070;-86
2021/06/02 07:44:53;;;;;;;12.48;8.32;;;18.00;71.40;;;;;;4938262;28;20039;-85
2021/06/02 07:47:20;;;;;;;18.83;8.63;;;18.10;70.40;;;;;;4942226;28;20044;-82
2021/06/02 07:49:46;;;;;;;13.50;8.02;;;18.20;69.70;;;;;;4963630;28;20277;-82
2021/06/02 07:52:12;;;;;;;14.13;8.57;;;18.20;68.90;;;;;;4933850;28;20048;-84
2021/06/02 07:54:39;;;;;;;11.02;7.65;;;18.30;69.30;;;;;;4941475;28;20535;-83
2021/06/02 07:57:05;;;;;;;8.60;7.13;;;18.50;68.80;;;;;;4949434;28;20162;-83
2021/06/02 07:59:31;;;;;;;11.63;6.97;;;18.60;67.80;;;;;;4928531;29;20151;-85
2021/06/02 08:01:58;;;;;;;12.07;7.25;;;18.70;66.60;;;;;;4959265;28;20138;-82
2021/06/02 08:04:24;;;;;;;12.80;7.80;;;18.70;65.60;;;;;;4975622;28;20104;-84
2021/06/02 08:06:50;;;;;;;11.13;6.70;;;18.80;65.40;;;;;;4951030;28;20051;-84
2021/06/02 08:09:18;;;;;;;9.48;6.50;;;18.80;65.40;;;;;;4949362;29;20082;-81
2021/06/02 08:11:48;;;;;;;10.13;6.03;;;18.90;63.60;;;;;;4961268;28;20255;-83
2021/06/02 08:14:16;;;;;;;7.82;5.65;;;19.10;63.30;;;;;;4951856;28;20050;-86
2021/06/02 08:16:42;;;;;;;9.73;5.85;;;19.20;61.70;;;;;;4931003;29;20040;-83
2021/06/02 08:19:08;;;;;;;12.35;5.60;;;19.20;61.10;;;;;;4974064;28;20109;-84
2021/06/02 08:21:34;;;;;;;12.07;5.93;;;19.40;61.50;;;;;;4941024;28;20032;-82
2021/06/02 08:24:00;;;;;;;6.95;5.18;;;19.40;61.00;;;;;;4928024;28;20062;-87
2021/06/02 08:26:26;;;;;;;12.00;6.20;;;19.50;59.30;;;;;;4960430;28;20047;-85
2021/06/02 08:28:56;;;;;;;9.05;5.75;;;19.50;58.60;;;;;;4943101;28;20081;-82
2021/06/02 08:31:22;;;;;;;8.50;5.20;;;19.50;58.50;;;;;;4945909;29;20039;-82
2021/06/02 08:33:48;;;;;;;6.32;4.78;;;19.60;58.80;;;;;;4956802;29;20035;-84
2021/06/02 08:36:14;;;;;;;11.30;5.05;;;19.70;58.90;;;;;;4955797;28;20037;-82
2021/06/02 08:38:40;;;;;;;7.90;4.80;;;19.80;57.20;;;;;;4950992;29;20051;-82
2021/06/02 08:41:06;;;;;;;7.18;4.90;;;19.80;56.30;;;;;;4952208;28;20077;-84
2021/06/02 08:43:34;;;;;;;8.00;4.88;;;19.80;57.20;;;;;;4922744;29;20039;-83
2021/06/02 08:46:00;;;;;;;12.88;5.85;;;19.90;58.10;;;;;;4926272;29;20070;-82
2021/06/02 08:48:26;;;;;;;9.95;5.75;;;19.90;55.90;;;;;;4935474;28;20130;-82
2021/06/02 08:50:52;;;;;;;9.95;4.95;;;20.00;55.60;;;;;;4941303;28;20479;-83
2021/06/02 08:53:20;;;;;;;6.88;4.38;;;20.00;54.40;;;;;;4934980;28;20186;-85
2021/06/02 08:55:46;;;;;;;7.90;3.97;;;20.10;53.90;;;;;;4921199;28;20050;-83
2021/06/02 08:58:21;;;;;;;8.82;4.63;;;20.20;54.10;;;;;;4935603;28;20047;-87
2021/06/02 09:00:47;;;;;;;7.63;3.97;;;20.20;53.30;;;;;;4942480;28;20043;-85
2021/06/02 09:03:14;;;;;;;9.38;4.60;;;20.30;52.90;;;;;;4942844;29;20039;-83
2021/06/02 09:05:40;;;;;;;8.52;3.88;;;20.40;52.40;;;;;;4944993;28;20070;-83
2021/06/02 09:08:12;;;;;;;5.07;4.07;;;20.40;51.80;;;;;;4943836;28;20043;-82
2021/06/02 09:10:41;;;;;;;5.43;3.95;;;20.50;50.30;;;;;;4939589;28;20043;-83
2021/06/02 09:13:19;;;;;;;5.88;4.32;;;20.50;51.30;;;;;;4967198;28;20119;-83
2021/06/02 09:15:48;;;;;;;7.63;3.80;;;20.60;50.90;;;;;;4941071;28;20039;-82
2021/06/02 09:18:19;;;;;;;6.45;3.28;;;20.60;50.80;;;;;;4947011;28;20043;-86
2021/06/02 09:20:50;;;;;;;5.45;3.78;;;20.60;48.10;;;;;;4918809;28;20115;-83
2021/06/02 09:23:32;;;;;;;4.57;3.50;;;20.70;48.60;;;;;;4951920;28;20035;-83
2021/06/02 09:26:14;;;;;;;8.57;3.90;;;20.90;46.00;;;;;;4949399;28;20044;-83
2021/06/02 09:28:47;;;;;;;4.22;3.10;;;21.00;48.20;;;;;;4965648;28;20039;-84
2021/06/02 09:31:30;;;;;;;5.15;3.45;;;21.00;47.10;;;;;;4941253;28;20158;-84
2021/06/02 09:33:59;;;;;;;7.40;3.78;;;21.00;47.90;;;;;;4939796;28;20071;-86
2021/06/02 09:36:27;;;;;;;10.55;4.35;;;21.00;49.50;;;;;;4939619;28;20506;-84
2021/06/02 09:38:55;;;;;;;7.10;4.13;;;21.00;50.20;;;;;;4957475;28;20585;-85
2021/06/02 09:41:21;;;;;;;7.00;4.10;;;21.00;50.30;;;;;;4968887;28;20036;-84
2021/06/02 09:43:46;;;;;;;6.80;3.92;;;21.00;50.90;;;;;;4954982;28;20046;-84
2021/06/02 09:46:16;;;;;;;6.63;4.10;;;21.00;49.60;;;;;;4942919;28;20714;-85
2021/06/02 09:48:48;;;;;;;8.48;4.15;;;21.00;49.90;;;;;;4956128;28;20035;-86
2021/06/02 09:51:30;;;;;;;8.35;3.85;;;21.00;49.80;;;;;;4955993;28;20534;-84
2021/06/02 09:53:57;;;;;;;7.35;4.15;;;21.10;51.30;;;;;;4983837;28;20137;-83
2021/06/02 09:56:41;;;;;;;8.10;4.35;;;21.10;51.10;;;;;;4949625;28;20099;-85
2021/06/02 09:59:09;;;;;;;8.73;4.55;;;21.10;49.90;;;;;;4951255;29;20036;-84
2021/06/02 10:01:57;;;;;;;7.25;4.00;;;21.10;50.80;;;;;;4952004;28;20115;-83
2021/06/02 10:04:39;;;;;;;9.68;4.85;;;21.20;52.00;;;;;;4962318;28;20046;-84
2021/06/02 10:07:20;;;;;;;7.50;4.60;;;21.30;50.40;;;;;;4952942;29;20038;-84
2021/06/02 10:09:46;;;;;;;10.82;4.50;;;21.30;51.80;;;;;;4952658;28;20028;-82
2021/06/02 10:12:12;;;;;;;6.95;4.68;;;21.40;51.80;;;;;;4955804;28;20126;-83
2021/06/02 10:14:58;;;;;;;7.90;4.28;;;21.50;50.70;;;;;;4964600;28;20032;-82
2021/06/02 10:17:38;;;;;;;6.38;3.88;;;21.50;50.20;;;;;;4941075;28;20165;-83
2021/06/02 10:20:09;;;;;;;10.80;3.90;;;21.50;49.70;;;;;;4936690;28;20062;-84
2021/06/02 10:22:36;;;;;;;6.27;4.47;;;21.50;49.90;;;;;;4934042;28;20043;-82
2021/06/02 10:25:05;;;;;;;5.63;4.63;;;21.50;49.90;;;;;;4942981;28;20051;-84
2021/06/02 10:27:31;;;;;;;6.60;3.92;;;21.50;49.60;;;;;;4963710;28;20032;-82
2021/06/02 10:29:58;;;;;;;11.35;4.65;;;21.60;49.70;;;;;;4969016;28;20082;-85
2021/06/02 10:32:25;;;;;;;5.53;4.00;;;21.60;49.40;;;;;;4966732;28;20482;-81
2021/06/02 10:34:52;;;;;;;8.02;4.10;;;21.70;49.40;;;;;;4941741;28;20570;-82
2021/06/02 10:37:20;;;;;;;8.07;3.50;;;21.80;48.20;;;;;;4950910;28;20039;-87
2021/06/02 10:39:58;;;;;;;5.38;3.67;;;21.80;47.80;;;;;;4953309;28;20102;-89
2021/06/02 10:43:04;;;;;;;7.85;3.35;;;21.90;47.30;;;;;;4955140;29;20134;-84
2021/06/02 10:45:43;;;;;;;4.95;3.75;;;22.00;47.40;;;;;;4930405;29;20494;-83
2021/06/02 10:48:09;;;;;;;5.72;3.85;;;22.10;47.40;;;;;;4951820;29;20035;-82
2021/06/02 10:50:40;;;;;;;6.45;3.45;;;22.10;47.20;;;;;;4952160;29;20122;-84
2021/06/02 10:53:19;;;;;;;9.57;4.00;;;22.20;46.60;;;;;;4986315;28;20043;-85
2021/06/02 10:55:49;;;;;;;7.20;3.92;;;22.20;45.70;;;;;;4960728;28;20040;-82
2021/06/02 10:58:20;;;;;;;7.55;4.50;;;22.20;46.50;;;;;;4937529;28;20091;-82
2021/06/02 11:00:49;;;;;;;10.60;3.85;;;22.20;46.40;;;;;;4969925;28;20047;-85
2021/06/02 11:03:25;;;;;;;8.77;3.53;;;22.20;45.30;;;;;;4972319;28;20098;-82
2021/06/02 11:06:17;;;;;;;5.85;3.70;;;22.10;45.80;;;;;;4944268;28;20039;-83
2021/06/02 11:09:06;;;;;;;9.77;3.88;;;22.20;45.70;;;;;;4937465;28;20203;-86
2021/06/02 11:11:44;;;;;;;7.05;4.43;;;22.30;45.40;;;;;;4937014;28;20158;-84
2021/06/02 11:17:08;;;;;;;8.45;3.97;;;22.40;46.70;;;;;;4981192;28;20050;-87
2021/06/02 11:19:39;;;;;;;8.30;3.97;;;22.50;45.30;;;;;;4946546;28;20050;-83
2021/06/02 11:22:09;;;;;;;6.45;3.60;;;22.50;45.20;;;;;;4954530;28;20042;-84
2021/06/02 11:24:40;;;;;;;8.68;4.45;;;22.50;45.00;;;;;;4953856;29;20039;-82
2021/06/02 11:27:12;;;;;;;9.60;3.88;;;22.50;45.30;;;;;;4947071;28;20043;-82
2021/06/02 11:30:01;;;;;;;8.85;3.97;;;22.60;46.20;;;;;;4953320;28;20058;-82
2021/06/02 11:32:29;;;;;;;7.82;5.50;;;22.70;48.30;;;;;;4934329;28;20044;-81
2021/06/02 11:34:59;;;;;;;10.43;5.60;;;22.80;46.90;;;;;;4920850;29;20044;-80
2021/06/02 11:37:26;;;;;;;10.77;5.20;;;22.80;46.80;;;;;;4959470;28;20073;-80
2021/06/02 11:40:01;;;;;;;13.23;5.40;;;22.90;47.20;;;;;;4945312;28;20479;-81
2021/06/02 11:42:27;;;;;;;6.43;4.47;;;22.90;47.50;;;;;;4959045;28;20144;-81
2021/06/02 11:44:57;;;;;;;8.63;5.07;;;22.90;48.00;;;;;;4959463;28;20055;-81
2021/06/02 11:47:23;;;;;;;10.15;4.40;;;23.00;47.90;;;;;;4970007;28;20076;-82
2021/06/02 11:49:49;;;;;;;8.95;5.13;;;23.10;49.20;;;;;;4949978;28;20032;-81
2021/06/02 11:52:19;;;;;;;7.85;4.75;;;23.20;50.70;;;;;;4964517;28;20030;-81
2021/06/02 11:55:13;;;;;;;7.38;4.60;;;23.20;49.60;;;;;;4938845;28;20051;-81
2021/06/02 11:57:41;;;;;;;13.07;5.72;;;23.30;48.90;;;;;;4936055;28;20052;-81
2021/06/02 12:00:11;;;;;;;8.60;5.20;;;23.30;48.00;;;;;;4972294;28;20038;-81
2021/06/02 12:02:39;;;;;;;11.45;6.28;;;23.40;47.60;;;;;;4954548;28;20035;-81
2021/06/02 12:05:27;;;;;;;10.40;6.88;;;23.40;47.70;;;;;;4984624;28;20142;-83
2021/06/02 12:07:56;;;;;;;10.73;6.28;;;23.40;47.80;;;;;;4954334;29;20031;-81
2021/06/02 12:10:43;;;;;;;8.73;5.70;;;23.40;47.70;;;;;;4946713;28;20111;-82
2021/06/02 12:13:26;;;;;;;11.35;6.95;;;23.50;47.70;;;;;;4945968;28;20027;-81
2021/06/02 12:15:55;;;;;;;11.45;5.88;;;23.50;47.40;;;;;;4939214;28;20058;-81
2021/06/02 12:18:33;;;;;;;9.73;5.13;;;23.50;48.00;;;;;;4953678;28;20126;-80
2021/06/02 12:21:26;;;;;;;8.00;5.47;;;23.60;48.00;;;;;;4969578;28;20040;-81
2021/06/02 12:24:02;;;;;;;9.35;5.70;;;23.70;48.80;;;;;;4940705;28;20028;-81
2021/06/02 12:26:41;;;;;;;8.30;5.35;;;23.70;48.50;;;;;;4955135;28;20035;-81
2021/06/02 12:29:12;;;;;;;8.52;5.78;;;23.80;47.50;;;;;;4936190;29;20023;-81
2021/06/02 12:31:53;;;;;;;13.23;6.07;;;23.80;47.80;;;;;;4955097;28;20296;-83
2021/06/02 12:34:21;;;;;;;7.47;5.60;;;23.90;48.20;;;;;;4949567;28;20035;-81
2021/06/02 12:37:08;;;;;;;8.85;6.10;;;24.00;48.90;;;;;;4935157;29;20031;-82
2021/06/02 12:39:34;;;;;;;9.02;5.18;;;24.10;49.20;;;;;;4943330;28;20035;-82
2021/06/02 12:42:03;;;;;;;7.85;5.10;;;24.10;49.90;;;;;;4928513;28;20339;-82
2021/06/02 12:44:35;;;;;;;9.15;5.20;;;24.20;50.80;;;;;;4946082;28;20450;-82
2021/06/02 12:47:15;;;;;;;8.02;5.13;;;24.30;51.20;;;;;;4952765;28;20051;-80
2021/06/02 12:49:47;;;;;;;10.00;5.80;;;24.40;50.90;;;;;;4960050;28;20075;-82
2021/06/02 12:52:14;;;;;;;11.98;5.88;;;24.40;50.00;;;;;;4962782;28;20039;-82
2021/06/02 12:54:41;;;;;;;8.45;5.85;;;24.40;49.80;;;;;;4949040;28;20031;-82
2021/06/02 12:57:07;;;;;;;6.13;4.63;;;24.40;49.50;;;;;;4945620;28;20043;-81
2021/06/02 12:59:36;;;;;;;5.88;4.70;;;24.50;50.40;;;;;;4935461;29;20039;-82
2021/06/02 13:02:05;;;;;;;7.68;4.82;;;24.60;50.90;;;;;;4932629;29;20039;-82
2021/06/02 13:04:33;;;;;;;7.93;4.85;;;24.70;50.00;;;;;;4950720;28;20046;-83
2021/06/02 13:06:59;;;;;;;9.38;5.10;;;24.80;50.00;;;;;;4947668;29;20043;-81
2021/06/02 13:09:26;;;;;;;6.70;4.97;;;24.80;48.80;;;;;;4952551;28;20031;-81
2021/06/02 13:11:52;;;;;;;9.23;4.80;;;24.80;48.70;;;;;;4948313;28;20035;-82
2021/06/02 13:14:22;;;;;;;9.98;5.30;;;24.80;48.30;;;;;;4948824;29;20046;-82
2021/06/02 13:16:54;;;;;;;9.77;5.20;;;24.80;49.60;;;;;;4948853;28;20039;-82
2021/06/02 13:19:43;;;;;;;7.30;5.03;;;24.90;49.70;;;;;;4948858;29;20038;-83
2021/06/02 13:22:22;;;;;;;9.10;4.70;;;25.10;49.80;;;;;;4957795;28;20035;-83
2021/06/02 13:24:49;;;;;;;6.35;4.13;;;25.10;48.80;;;;;;4947605;28;20039;-81
2021/06/02 13:27:19;;;;;;;6.82;4.32;;;25.20;49.20;;;;;;4979774;28;20094;-82
2021/06/02 13:30:06;;;;;;;7.32;4.78;;;25.30;49.80;;;;;;4950470;29;20035;-82